Strona główna
METAR-TAF:

METAR-TAF

Lotnisko :

Port lotniczy Vadsø

Vadsø, Norwegia

Szerokość geograficzna: 70-04N, Długość geograficzna: 029-51E, wysokość: 3 m

Aktualna obserwacja pogody

Raport powstał 9 godziny i 37 minut temu, godzina 13:20 UTC
Wiatr 21 kt od zachodnio-północny zachód
Temperatura 7°C
Wilgotność 70%
Ciśnienie 1030 hPa
Widzialność 10 km lub więcej
Rozproszone chmury na wysokości 2500 ft

METAR: ENVD 301320Z 30021KT 9999 SCT025 07/02 Q1030

czas: 00:57 (22:57 UTC)

Prognoza

Raport powstał 11 godziny i 57 minut temu, godzina 11:00 UTC
Prognoza ważna od 30 godzina 12 UTC do 30 godzina 15 UTC
Wiatr 8 kt od zachodnio-północny zachód
Widzialność 10 km lub więcej
Rozproszone chmury na wysokości 2000 ft
Przejściowo
od 30 godzina 12 UTC do 30 godzina 15 UTC
Wiatr 20 kt od zachodnio-północny zachód w porywach dochodzący do 30 kt

TAF: ENVD 301100Z 3012/3015 30008KT 9999 SCT020 TEMPO 3012/3015 30020G30KT

Obserwacja i prognoza pogody dla ponad 4000 lotnisk (raport METAR i TAF).

Dostępne stacje oznaczono żółtymi i czerwonymi punktami na mapie.

Najedź kursorem aby zobaczyć nazwę stacji.

Kliknij aby zobaczyć obserwacje i prognozy pogody.

Aby zmienić mapę: kliknij na zielony przycisk z czarnym krzyżykiem, aby powiększyć; na zielony przycisk z myślnikiem, aby pomniejszyć; na zielone strzałki, aby przejść do map sąsiednich.


METAR-TAF: